<?xml version="1.0" encoding="UTF-8" standalone="no" ?>
<gpx xmlns="http://www.topografix.com/GPX/1/1" xmlns:xsi="http://www.w3.org/2001/XMLSchema-instance" xsi:schemaLocation="http://www.topografix.com/GPX/1/1 http://www.topografix.com/GPX/1/1/gpx.xsd" version="1.1" creator="VisuGPX - https://www.visugpx.com">
  <metadata>
    <name>Lac Bleu par le GR</name>
    <desc><![CDATA[Bord du la bleu sur 900m (par en haut à l'aller par en bas au retour) puis suivi du GR puis quitter le GR pour un petit détour avant de revenir.]]></desc>
  </metadata>
  <trk>
    <name><![CDATA[Lac Bleu par le GR_1]]></name>
    <trkseg>
      <trkpt lat="43.46298" lon="5.3355">
        <ele>214</ele>
        <time>2022-04-26T12:04:17Z</time>
      </trkpt>
      <trkpt lat="43.46293" lon="5.33535">
        <ele>207</ele>
        <time>2022-04-26T12:04:38Z</time>
      </trkpt>
      <trkpt lat="43.46288" lon="5.33523">
        <ele>207</ele>
        <time>2022-04-26T12:04:58Z</time>
      </trkpt>
      <trkpt lat="43.46284" lon="5.33506">
        <ele>204</ele>
        <time>2022-04-26T12:05:18Z</time>
      </trkpt>
      <trkpt lat="43.46285" lon="5.33484">
        <ele>203</ele>
        <time>2022-04-26T12:05:38Z</time>
      </trkpt>
      <trkpt lat="43.46293" lon="5.33473">
        <ele>203</ele>
        <time>2022-04-26T12:05:59Z</time>
      </trkpt>
      <trkpt lat="43.46303" lon="5.33464">
        <ele>203</ele>
        <time>2022-04-26T12:06:19Z</time>
      </trkpt>
      <trkpt lat="43.46313" lon="5.33454">
        <ele>202</ele>
        <time>2022-04-26T12:06:40Z</time>
      </trkpt>
      <trkpt lat="43.46323" lon="5.33437">
        <ele>202</ele>
        <time>2022-04-26T12:07:01Z</time>
      </trkpt>
      <trkpt lat="43.46334" lon="5.33427">
        <ele>201</ele>
        <time>2022-04-26T12:07:21Z</time>
      </trkpt>
      <trkpt lat="43.46337" lon="5.33405">
        <ele>202</ele>
        <time>2022-04-26T12:07:42Z</time>
      </trkpt>
      <trkpt lat="43.46344" lon="5.33392">
        <ele>205</ele>
        <time>2022-04-26T12:08:02Z</time>
      </trkpt>
      <trkpt lat="43.46352" lon="5.33379">
        <ele>205</ele>
        <time>2022-04-26T12:08:23Z</time>
      </trkpt>
      <trkpt lat="43.46361" lon="5.33363">
        <ele>206</ele>
        <time>2022-04-26T12:08:43Z</time>
      </trkpt>
      <trkpt lat="43.46367" lon="5.33355">
        <ele>206</ele>
        <time>2022-04-26T12:09:04Z</time>
      </trkpt>
      <trkpt lat="43.46378" lon="5.33348">
        <ele>206</ele>
        <time>2022-04-26T12:09:24Z</time>
      </trkpt>
      <trkpt lat="43.4639" lon="5.33339">
        <ele>205</ele>
        <time>2022-04-26T12:09:45Z</time>
      </trkpt>
      <trkpt lat="43.46401" lon="5.33326">
        <ele>201</ele>
        <time>2022-04-26T12:10:06Z</time>
      </trkpt>
      <trkpt lat="43.4641" lon="5.33312">
        <ele>200</ele>
        <time>2022-04-26T12:10:26Z</time>
      </trkpt>
      <trkpt lat="43.46422" lon="5.33293">
        <ele>199</ele>
        <time>2022-04-26T12:10:47Z</time>
      </trkpt>
      <trkpt lat="43.46436" lon="5.33289">
        <ele>199</ele>
        <time>2022-04-26T12:11:08Z</time>
      </trkpt>
      <trkpt lat="43.46449" lon="5.33289">
        <ele>200</ele>
        <time>2022-04-26T12:11:28Z</time>
      </trkpt>
      <trkpt lat="43.46465" lon="5.33289">
        <ele>203</ele>
        <time>2022-04-26T12:11:48Z</time>
      </trkpt>
      <trkpt lat="43.46476" lon="5.33293">
        <ele>204</ele>
        <time>2022-04-26T12:12:09Z</time>
      </trkpt>
      <trkpt lat="43.46491" lon="5.333">
        <ele>203</ele>
        <time>2022-04-26T12:12:29Z</time>
      </trkpt>
      <trkpt lat="43.46506" lon="5.33292">
        <ele>206</ele>
        <time>2022-04-26T12:12:50Z</time>
      </trkpt>
      <trkpt lat="43.46512" lon="5.33281">
        <ele>204</ele>
        <time>2022-04-26T12:13:10Z</time>
      </trkpt>
      <trkpt lat="43.46514" lon="5.33259">
        <ele>204</ele>
        <time>2022-04-26T12:13:31Z</time>
      </trkpt>
      <trkpt lat="43.46521" lon="5.33241">
        <ele>206</ele>
        <time>2022-04-26T12:13:51Z</time>
      </trkpt>
      <trkpt lat="43.46531" lon="5.33244">
        <ele>207</ele>
        <time>2022-04-26T12:14:12Z</time>
      </trkpt>
      <trkpt lat="43.46535" lon="5.33241">
        <ele>207</ele>
        <time>2022-04-26T12:14:32Z</time>
      </trkpt>
      <trkpt lat="43.4654" lon="5.33243">
        <ele>207</ele>
        <time>2022-04-26T12:14:53Z</time>
      </trkpt>
      <trkpt lat="43.46539" lon="5.33243">
        <ele>207</ele>
        <time>2022-04-26T12:15:13Z</time>
      </trkpt>
      <trkpt lat="43.46547" lon="5.33248">
        <ele>206</ele>
        <time>2022-04-26T12:15:33Z</time>
      </trkpt>
      <trkpt lat="43.46559" lon="5.33257">
        <ele>202</ele>
        <time>2022-04-26T12:15:54Z</time>
      </trkpt>
      <trkpt lat="43.46574" lon="5.33264">
        <ele>203</ele>
        <time>2022-04-26T12:16:14Z</time>
      </trkpt>
      <trkpt lat="43.46589" lon="5.33254">
        <ele>207</ele>
        <time>2022-04-26T12:16:35Z</time>
      </trkpt>
      <trkpt lat="43.46599" lon="5.33233">
        <ele>207</ele>
        <time>2022-04-26T12:16:56Z</time>
      </trkpt>
      <trkpt lat="43.46604" lon="5.33225">
        <ele>207</ele>
        <time>2022-04-26T12:17:16Z</time>
      </trkpt>
      <trkpt lat="43.46604" lon="5.33224">
        <ele>208</ele>
        <time>2022-04-26T12:17:36Z</time>
      </trkpt>
      <trkpt lat="43.46618" lon="5.33222">
        <ele>213</ele>
        <time>2022-04-26T12:17:57Z</time>
      </trkpt>
      <trkpt lat="43.46633" lon="5.33226">
        <ele>217</ele>
        <time>2022-04-26T12:18:17Z</time>
      </trkpt>
      <trkpt lat="43.46645" lon="5.3322">
        <ele>221</ele>
        <time>2022-04-26T12:18:38Z</time>
      </trkpt>
      <trkpt lat="43.46649" lon="5.33209">
        <ele>221</ele>
        <time>2022-04-26T12:18:59Z</time>
      </trkpt>
      <trkpt lat="43.4665" lon="5.33206">
        <ele>221</ele>
        <time>2022-04-26T12:19:19Z</time>
      </trkpt>
      <trkpt lat="43.46649" lon="5.33206">
        <ele>220</ele>
        <time>2022-04-26T12:19:40Z</time>
      </trkpt>
      <trkpt lat="43.46649" lon="5.33206">
        <ele>219</ele>
        <time>2022-04-26T12:20:00Z</time>
      </trkpt>
      <trkpt lat="43.46651" lon="5.33205">
        <ele>220</ele>
        <time>2022-04-26T12:20:21Z</time>
      </trkpt>
      <trkpt lat="43.46665" lon="5.33186">
        <ele>223</ele>
        <time>2022-04-26T12:20:41Z</time>
      </trkpt>
      <trkpt lat="43.46677" lon="5.33174">
        <ele>225</ele>
        <time>2022-04-26T12:21:02Z</time>
      </trkpt>
      <trkpt lat="43.46689" lon="5.33163">
        <ele>224</ele>
        <time>2022-04-26T12:21:22Z</time>
      </trkpt>
      <trkpt lat="43.46701" lon="5.33157">
        <ele>224</ele>
        <time>2022-04-26T12:21:43Z</time>
      </trkpt>
      <trkpt lat="43.4671" lon="5.33149">
        <ele>223</ele>
        <time>2022-04-26T12:22:03Z</time>
      </trkpt>
      <trkpt lat="43.46716" lon="5.33143">
        <ele>222</ele>
        <time>2022-04-26T12:22:24Z</time>
      </trkpt>
      <trkpt lat="43.46729" lon="5.33133">
        <ele>221</ele>
        <time>2022-04-26T12:22:45Z</time>
      </trkpt>
      <trkpt lat="43.46741" lon="5.33121">
        <ele>221</ele>
        <time>2022-04-26T12:23:05Z</time>
      </trkpt>
      <trkpt lat="43.4675" lon="5.33108">
        <ele>220</ele>
        <time>2022-04-26T12:23:26Z</time>
      </trkpt>
      <trkpt lat="43.46762" lon="5.33101">
        <ele>221</ele>
        <time>2022-04-26T12:23:46Z</time>
      </trkpt>
      <trkpt lat="43.46774" lon="5.33095">
        <ele>221</ele>
        <time>2022-04-26T12:24:07Z</time>
      </trkpt>
      <trkpt lat="43.46787" lon="5.33091">
        <ele>221</ele>
        <time>2022-04-26T12:24:27Z</time>
      </trkpt>
      <trkpt lat="43.46797" lon="5.33086">
        <ele>222</ele>
        <time>2022-04-26T12:24:48Z</time>
      </trkpt>
      <trkpt lat="43.46804" lon="5.3308">
        <ele>221</ele>
        <time>2022-04-26T12:25:09Z</time>
      </trkpt>
      <trkpt lat="43.46817" lon="5.33069">
        <ele>221</ele>
        <time>2022-04-26T12:25:29Z</time>
      </trkpt>
      <trkpt lat="43.46817" lon="5.33069">
        <ele>221</ele>
        <time>2022-04-26T12:25:49Z</time>
      </trkpt>
      <trkpt lat="43.46817" lon="5.33069">
        <ele>221</ele>
        <time>2022-04-26T12:26:10Z</time>
      </trkpt>
      <trkpt lat="43.46817" lon="5.33069">
        <ele>221</ele>
        <time>2022-04-26T12:26:31Z</time>
      </trkpt>
      <trkpt lat="43.4682" lon="5.33068">
        <ele>219</ele>
        <time>2022-04-26T12:26:51Z</time>
      </trkpt>
      <trkpt lat="43.46832" lon="5.33063">
        <ele>222</ele>
        <time>2022-04-26T12:27:12Z</time>
      </trkpt>
      <trkpt lat="43.46844" lon="5.33059">
        <ele>222</ele>
        <time>2022-04-26T12:27:32Z</time>
      </trkpt>
      <trkpt lat="43.46857" lon="5.33053">
        <ele>224</ele>
        <time>2022-04-26T12:27:53Z</time>
      </trkpt>
      <trkpt lat="43.4686" lon="5.33053">
        <ele>219</ele>
        <time>2022-04-26T12:28:13Z</time>
      </trkpt>
      <trkpt lat="43.46872" lon="5.33048">
        <ele>221</ele>
        <time>2022-04-26T12:28:34Z</time>
      </trkpt>
      <trkpt lat="43.46884" lon="5.33047">
        <ele>220</ele>
        <time>2022-04-26T12:28:54Z</time>
      </trkpt>
      <trkpt lat="43.4689" lon="5.33044">
        <ele>221</ele>
        <time>2022-04-26T12:29:15Z</time>
      </trkpt>
      <trkpt lat="43.46891" lon="5.33045">
        <ele>219</ele>
        <time>2022-04-26T12:29:36Z</time>
      </trkpt>
      <trkpt lat="43.46904" lon="5.33037">
        <ele>222</ele>
        <time>2022-04-26T12:29:57Z</time>
      </trkpt>
      <trkpt lat="43.46913" lon="5.33032">
        <ele>222</ele>
        <time>2022-04-26T12:30:17Z</time>
      </trkpt>
      <trkpt lat="43.46925" lon="5.33027">
        <ele>221</ele>
        <time>2022-04-26T12:30:37Z</time>
      </trkpt>
      <trkpt lat="43.46929" lon="5.33028">
        <ele>222</ele>
        <time>2022-04-26T12:30:58Z</time>
      </trkpt>
      <trkpt lat="43.46942" lon="5.33029">
        <ele>225</ele>
        <time>2022-04-26T12:31:18Z</time>
      </trkpt>
      <trkpt lat="43.46955" lon="5.33026">
        <ele>227</ele>
        <time>2022-04-26T12:31:39Z</time>
      </trkpt>
      <trkpt lat="43.46966" lon="5.33019">
        <ele>227</ele>
        <time>2022-04-26T12:31:59Z</time>
      </trkpt>
      <trkpt lat="43.46967" lon="5.33017">
        <ele>223</ele>
        <time>2022-04-26T12:32:20Z</time>
      </trkpt>
      <trkpt lat="43.46975" lon="5.33">
        <ele>223</ele>
        <time>2022-04-26T12:32:40Z</time>
      </trkpt>
      <trkpt lat="43.46981" lon="5.32987">
        <ele>222</ele>
        <time>2022-04-26T12:33:01Z</time>
      </trkpt>
      <trkpt lat="43.4699" lon="5.32975">
        <ele>221</ele>
        <time>2022-04-26T12:33:21Z</time>
      </trkpt>
      <trkpt lat="43.47002" lon="5.32963">
        <ele>221</ele>
        <time>2022-04-26T12:33:41Z</time>
      </trkpt>
      <trkpt lat="43.47003" lon="5.3295">
        <ele>217</ele>
        <time>2022-04-26T12:34:02Z</time>
      </trkpt>
      <trkpt lat="43.47003" lon="5.32942">
        <ele>216</ele>
        <time>2022-04-26T12:34:22Z</time>
      </trkpt>
      <trkpt lat="43.47004" lon="5.3293">
        <ele>215</ele>
        <time>2022-04-26T12:34:43Z</time>
      </trkpt>
      <trkpt lat="43.47004" lon="5.32929">
        <ele>216</ele>
        <time>2022-04-26T12:35:03Z</time>
      </trkpt>
      <trkpt lat="43.47004" lon="5.3293">
        <ele>216</ele>
        <time>2022-04-26T12:35:24Z</time>
      </trkpt>
      <trkpt lat="43.47004" lon="5.3293">
        <ele>216</ele>
        <time>2022-04-26T12:35:44Z</time>
      </trkpt>
      <trkpt lat="43.47004" lon="5.3293">
        <ele>216</ele>
        <time>2022-04-26T12:36:05Z</time>
      </trkpt>
      <trkpt lat="43.47004" lon="5.3293">
        <ele>216</ele>
        <time>2022-04-26T12:36:26Z</time>
      </trkpt>
      <trkpt lat="43.47004" lon="5.3293">
        <ele>216</ele>
        <time>2022-04-26T12:36:46Z</time>
      </trkpt>
      <trkpt lat="43.47013" lon="5.32921">
        <ele>216</ele>
        <time>2022-04-26T12:37:07Z</time>
      </trkpt>
      <trkpt lat="43.47029" lon="5.32911">
        <ele>219</ele>
        <time>2022-04-26T12:37:28Z</time>
      </trkpt>
      <trkpt lat="43.47042" lon="5.32903">
        <ele>219</ele>
        <time>2022-04-26T12:37:48Z</time>
      </trkpt>
      <trkpt lat="43.47059" lon="5.32899">
        <ele>220</ele>
        <time>2022-04-26T12:38:09Z</time>
      </trkpt>
      <trkpt lat="43.47071" lon="5.32908">
        <ele>220</ele>
        <time>2022-04-26T12:38:29Z</time>
      </trkpt>
      <trkpt lat="43.47079" lon="5.32896">
        <ele>218</ele>
        <time>2022-04-26T12:38:50Z</time>
      </trkpt>
      <trkpt lat="43.47088" lon="5.32882">
        <ele>214</ele>
        <time>2022-04-26T12:39:11Z</time>
      </trkpt>
      <trkpt lat="43.47093" lon="5.32863">
        <ele>213</ele>
        <time>2022-04-26T12:39:31Z</time>
      </trkpt>
      <trkpt lat="43.47093" lon="5.32863">
        <ele>213</ele>
        <time>2022-04-26T12:39:52Z</time>
      </trkpt>
      <trkpt lat="43.47093" lon="5.32863">
        <ele>213</ele>
        <time>2022-04-26T12:40:12Z</time>
      </trkpt>
      <trkpt lat="43.47093" lon="5.32863">
        <ele>213</ele>
        <time>2022-04-26T12:40:33Z</time>
      </trkpt>
      <trkpt lat="43.47093" lon="5.32863">
        <ele>215</ele>
        <time>2022-04-26T12:40:53Z</time>
      </trkpt>
      <trkpt lat="43.47093" lon="5.32864">
        <ele>212</ele>
        <time>2022-04-26T12:41:13Z</time>
      </trkpt>
      <trkpt lat="43.47094" lon="5.32873">
        <ele>212</ele>
        <time>2022-04-26T12:41:34Z</time>
      </trkpt>
      <trkpt lat="43.47103" lon="5.32869">
        <ele>211</ele>
        <time>2022-04-26T12:41:55Z</time>
      </trkpt>
      <trkpt lat="43.47108" lon="5.32857">
        <ele>207</ele>
        <time>2022-04-26T12:42:16Z</time>
      </trkpt>
      <trkpt lat="43.47112" lon="5.32849">
        <ele>204</ele>
        <time>2022-04-26T12:42:37Z</time>
      </trkpt>
      <trkpt lat="43.47116" lon="5.32843">
        <ele>204</ele>
        <time>2022-04-26T12:42:58Z</time>
      </trkpt>
      <trkpt lat="43.47115" lon="5.32842">
        <ele>205</ele>
        <time>2022-04-26T12:43:18Z</time>
      </trkpt>
      <trkpt lat="43.47113" lon="5.32846">
        <ele>204</ele>
        <time>2022-04-26T12:43:39Z</time>
      </trkpt>
      <trkpt lat="43.47113" lon="5.32846">
        <ele>202</ele>
        <time>2022-04-26T12:43:59Z</time>
      </trkpt>
      <trkpt lat="43.47115" lon="5.32848">
        <ele>202</ele>
        <time>2022-04-26T12:44:20Z</time>
      </trkpt>
      <trkpt lat="43.47116" lon="5.32856">
        <ele>202</ele>
        <time>2022-04-26T12:44:40Z</time>
      </trkpt>
      <trkpt lat="43.47118" lon="5.32862">
        <ele>203</ele>
        <time>2022-04-26T12:45:00Z</time>
      </trkpt>
      <trkpt lat="43.47122" lon="5.32875">
        <ele>205</ele>
        <time>2022-04-26T12:45:21Z</time>
      </trkpt>
      <trkpt lat="43.47134" lon="5.32884">
        <ele>205</ele>
        <time>2022-04-26T12:45:41Z</time>
      </trkpt>
      <trkpt lat="43.47148" lon="5.32887">
        <ele>204</ele>
        <time>2022-04-26T12:46:01Z</time>
      </trkpt>
      <trkpt lat="43.47164" lon="5.32878">
        <ele>204</ele>
        <time>2022-04-26T12:46:22Z</time>
      </trkpt>
      <trkpt lat="43.47178" lon="5.32866">
        <ele>205</ele>
        <time>2022-04-26T12:46:42Z</time>
      </trkpt>
      <trkpt lat="43.47196" lon="5.32848">
        <ele>206</ele>
        <time>2022-04-26T12:47:03Z</time>
      </trkpt>
      <trkpt lat="43.47208" lon="5.32837">
        <ele>208</ele>
        <time>2022-04-26T12:47:23Z</time>
      </trkpt>
      <trkpt lat="43.47222" lon="5.32826">
        <ele>207</ele>
        <time>2022-04-26T12:47:44Z</time>
      </trkpt>
      <trkpt lat="43.47238" lon="5.32816">
        <ele>207</ele>
        <time>2022-04-26T12:48:05Z</time>
      </trkpt>
      <trkpt lat="43.47253" lon="5.32798">
        <ele>207</ele>
        <time>2022-04-26T12:48:25Z</time>
      </trkpt>
      <trkpt lat="43.47266" lon="5.32782">
        <ele>206</ele>
        <time>2022-04-26T12:48:45Z</time>
      </trkpt>
      <trkpt lat="43.4728" lon="5.32768">
        <ele>205</ele>
        <time>2022-04-26T12:49:06Z</time>
      </trkpt>
      <trkpt lat="43.47296" lon="5.32755">
        <ele>206</ele>
        <time>2022-04-26T12:49:26Z</time>
      </trkpt>
      <trkpt lat="43.47308" lon="5.32735">
        <ele>202</ele>
        <time>2022-04-26T12:49:47Z</time>
      </trkpt>
      <trkpt lat="43.47321" lon="5.3272">
        <ele>203</ele>
        <time>2022-04-26T12:50:08Z</time>
      </trkpt>
      <trkpt lat="43.47336" lon="5.32706">
        <ele>202</ele>
        <time>2022-04-26T12:50:28Z</time>
      </trkpt>
      <trkpt lat="43.47354" lon="5.32692">
        <ele>204</ele>
        <time>2022-04-26T12:50:49Z</time>
      </trkpt>
      <trkpt lat="43.47369" lon="5.32679">
        <ele>204</ele>
        <time>2022-04-26T12:51:09Z</time>
      </trkpt>
      <trkpt lat="43.47382" lon="5.3266">
        <ele>204</ele>
        <time>2022-04-26T12:51:29Z</time>
      </trkpt>
      <trkpt lat="43.47395" lon="5.32645">
        <ele>203</ele>
        <time>2022-04-26T12:51:50Z</time>
      </trkpt>
      <trkpt lat="43.47402" lon="5.32629">
        <ele>201</ele>
        <time>2022-04-26T12:52:11Z</time>
      </trkpt>
      <trkpt lat="43.47413" lon="5.32608">
        <ele>202</ele>
        <time>2022-04-26T12:52:31Z</time>
      </trkpt>
      <trkpt lat="43.47424" lon="5.32586">
        <ele>203</ele>
        <time>2022-04-26T12:52:52Z</time>
      </trkpt>
      <trkpt lat="43.47436" lon="5.32568">
        <ele>202</ele>
        <time>2022-04-26T12:53:13Z</time>
      </trkpt>
      <trkpt lat="43.47439" lon="5.32566">
        <ele>204</ele>
        <time>2022-04-26T12:53:34Z</time>
      </trkpt>
      <trkpt lat="43.47438" lon="5.32566">
        <ele>201</ele>
        <time>2022-04-26T12:53:54Z</time>
      </trkpt>
      <trkpt lat="43.47437" lon="5.32564">
        <ele>201</ele>
        <time>2022-04-26T12:54:15Z</time>
      </trkpt>
      <trkpt lat="43.47437" lon="5.32564">
        <ele>201</ele>
        <time>2022-04-26T12:54:35Z</time>
      </trkpt>
      <trkpt lat="43.47435" lon="5.32567">
        <ele>203</ele>
        <time>2022-04-26T12:54:56Z</time>
      </trkpt>
      <trkpt lat="43.47435" lon="5.32567">
        <ele>203</ele>
        <time>2022-04-26T12:55:17Z</time>
      </trkpt>
      <trkpt lat="43.47435" lon="5.32567">
        <ele>203</ele>
        <time>2022-04-26T12:55:37Z</time>
      </trkpt>
      <trkpt lat="43.47435" lon="5.32567">
        <ele>203</ele>
        <time>2022-04-26T12:55:58Z</time>
      </trkpt>
      <trkpt lat="43.47435" lon="5.32567">
        <ele>203</ele>
        <time>2022-04-26T12:56:18Z</time>
      </trkpt>
      <trkpt lat="43.47435" lon="5.32567">
        <ele>203</ele>
        <time>2022-04-26T12:56:39Z</time>
      </trkpt>
      <trkpt lat="43.47435" lon="5.32567">
        <ele>203</ele>
        <time>2022-04-26T12:56:59Z</time>
      </trkpt>
      <trkpt lat="43.47435" lon="5.32567">
        <ele>203</ele>
        <time>2022-04-26T12:57:20Z</time>
      </trkpt>
      <trkpt lat="43.47435" lon="5.32567">
        <ele>203</ele>
        <time>2022-04-26T12:57:40Z</time>
      </trkpt>
      <trkpt lat="43.47435" lon="5.32567">
        <ele>203</ele>
        <time>2022-04-26T12:58:00Z</time>
      </trkpt>
      <trkpt lat="43.47438" lon="5.32564">
        <ele>201</ele>
        <time>2022-04-26T12:58:21Z</time>
      </trkpt>
      <trkpt lat="43.47436" lon="5.32548">
        <ele>201</ele>
        <time>2022-04-26T12:58:41Z</time>
      </trkpt>
      <trkpt lat="43.47422" lon="5.32536">
        <ele>198</ele>
        <time>2022-04-26T12:59:01Z</time>
      </trkpt>
      <trkpt lat="43.47409" lon="5.32529">
        <ele>197</ele>
        <time>2022-04-26T12:59:22Z</time>
      </trkpt>
      <trkpt lat="43.47396" lon="5.32523">
        <ele>196</ele>
        <time>2022-04-26T12:59:42Z</time>
      </trkpt>
      <trkpt lat="43.47379" lon="5.32511">
        <ele>199</ele>
        <time>2022-04-26T13:00:02Z</time>
      </trkpt>
      <trkpt lat="43.47364" lon="5.32499">
        <ele>198</ele>
        <time>2022-04-26T13:00:22Z</time>
      </trkpt>
      <trkpt lat="43.47347" lon="5.32494">
        <ele>197</ele>
        <time>2022-04-26T13:00:42Z</time>
      </trkpt>
      <trkpt lat="43.4733" lon="5.32499">
        <ele>194</ele>
        <time>2022-04-26T13:01:02Z</time>
      </trkpt>
      <trkpt lat="43.47315" lon="5.32502">
        <ele>194</ele>
        <time>2022-04-26T13:01:22Z</time>
      </trkpt>
      <trkpt lat="43.47296" lon="5.325">
        <ele>192</ele>
        <time>2022-04-26T13:01:42Z</time>
      </trkpt>
      <trkpt lat="43.47283" lon="5.32491">
        <ele>189</ele>
        <time>2022-04-26T13:02:02Z</time>
      </trkpt>
      <trkpt lat="43.47271" lon="5.32477">
        <ele>187</ele>
        <time>2022-04-26T13:02:23Z</time>
      </trkpt>
      <trkpt lat="43.47265" lon="5.32451">
        <ele>188</ele>
        <time>2022-04-26T13:02:43Z</time>
      </trkpt>
      <trkpt lat="43.47259" lon="5.32423">
        <ele>187</ele>
        <time>2022-04-26T13:03:03Z</time>
      </trkpt>
      <trkpt lat="43.47252" lon="5.32406">
        <ele>184</ele>
        <time>2022-04-26T13:03:24Z</time>
      </trkpt>
      <trkpt lat="43.47248" lon="5.32399">
        <ele>188</ele>
        <time>2022-04-26T13:03:45Z</time>
      </trkpt>
      <trkpt lat="43.47248" lon="5.32398">
        <ele>189</ele>
        <time>2022-04-26T13:04:05Z</time>
      </trkpt>
      <trkpt lat="43.47245" lon="5.32397">
        <ele>185</ele>
        <time>2022-04-26T13:04:25Z</time>
      </trkpt>
      <trkpt lat="43.47244" lon="5.32376">
        <ele>185</ele>
        <time>2022-04-26T13:04:46Z</time>
      </trkpt>
      <trkpt lat="43.47236" lon="5.3235">
        <ele>187</ele>
        <time>2022-04-26T13:05:07Z</time>
      </trkpt>
      <trkpt lat="43.4722" lon="5.32342">
        <ele>187</ele>
        <time>2022-04-26T13:05:28Z</time>
      </trkpt>
      <trkpt lat="43.4721" lon="5.32334">
        <ele>187</ele>
        <time>2022-04-26T13:05:49Z</time>
      </trkpt>
      <trkpt lat="43.47217" lon="5.32347">
        <ele>188</ele>
        <time>2022-04-26T13:06:10Z</time>
      </trkpt>
      <trkpt lat="43.47211" lon="5.3236">
        <ele>189</ele>
        <time>2022-04-26T13:06:31Z</time>
      </trkpt>
      <trkpt lat="43.47206" lon="5.32368">
        <ele>194</ele>
        <time>2022-04-26T13:06:52Z</time>
      </trkpt>
      <trkpt lat="43.47204" lon="5.3237">
        <ele>195</ele>
        <time>2022-04-26T13:07:13Z</time>
      </trkpt>
      <trkpt lat="43.47202" lon="5.32377">
        <ele>197</ele>
        <time>2022-04-26T13:07:33Z</time>
      </trkpt>
      <trkpt lat="43.47202" lon="5.32377">
        <ele>197</ele>
        <time>2022-04-26T13:07:53Z</time>
      </trkpt>
      <trkpt lat="43.47201" lon="5.32377">
        <ele>197</ele>
        <time>2022-04-26T13:08:14Z</time>
      </trkpt>
      <trkpt lat="43.47203" lon="5.32394">
        <ele>199</ele>
        <time>2022-04-26T13:08:34Z</time>
      </trkpt>
      <trkpt lat="43.472" lon="5.32402">
        <ele>199</ele>
        <time>2022-04-26T13:08:55Z</time>
      </trkpt>
      <trkpt lat="43.47198" lon="5.32401">
        <ele>199</ele>
        <time>2022-04-26T13:09:15Z</time>
      </trkpt>
      <trkpt lat="43.47184" lon="5.32405">
        <ele>200</ele>
        <time>2022-04-26T13:09:35Z</time>
      </trkpt>
      <trkpt lat="43.47177" lon="5.32414">
        <ele>200</ele>
        <time>2022-04-26T13:09:56Z</time>
      </trkpt>
      <trkpt lat="43.47167" lon="5.32417">
        <ele>201</ele>
        <time>2022-04-26T13:10:16Z</time>
      </trkpt>
      <trkpt lat="43.47151" lon="5.32425">
        <ele>201</ele>
        <time>2022-04-26T13:10:36Z</time>
      </trkpt>
      <trkpt lat="43.47135" lon="5.32432">
        <ele>201</ele>
        <time>2022-04-26T13:10:57Z</time>
      </trkpt>
      <trkpt lat="43.47117" lon="5.32431">
        <ele>202</ele>
        <time>2022-04-26T13:11:18Z</time>
      </trkpt>
      <trkpt lat="43.47109" lon="5.32443">
        <ele>202</ele>
        <time>2022-04-26T13:11:38Z</time>
      </trkpt>
      <trkpt lat="43.4711" lon="5.32443">
        <ele>202</ele>
        <time>2022-04-26T13:11:58Z</time>
      </trkpt>
      <trkpt lat="43.47109" lon="5.32443">
        <ele>203</ele>
        <time>2022-04-26T13:12:18Z</time>
      </trkpt>
      <trkpt lat="43.47109" lon="5.32445">
        <ele>201</ele>
        <time>2022-04-26T13:12:39Z</time>
      </trkpt>
      <trkpt lat="43.47102" lon="5.32461">
        <ele>201</ele>
        <time>2022-04-26T13:12:59Z</time>
      </trkpt>
      <trkpt lat="43.47095" lon="5.32486">
        <ele>202</ele>
        <time>2022-04-26T13:13:20Z</time>
      </trkpt>
      <trkpt lat="43.4708" lon="5.325">
        <ele>202</ele>
        <time>2022-04-26T13:13:40Z</time>
      </trkpt>
      <trkpt lat="43.47069" lon="5.32522">
        <ele>202</ele>
        <time>2022-04-26T13:14:01Z</time>
      </trkpt>
      <trkpt lat="43.47068" lon="5.32547">
        <ele>202</ele>
        <time>2022-04-26T13:14:22Z</time>
      </trkpt>
      <trkpt lat="43.47064" lon="5.32565">
        <ele>201</ele>
        <time>2022-04-26T13:14:42Z</time>
      </trkpt>
      <trkpt lat="43.47064" lon="5.3257">
        <ele>199</ele>
        <time>2022-04-26T13:15:03Z</time>
      </trkpt>
      <trkpt lat="43.47065" lon="5.32571">
        <ele>199</ele>
        <time>2022-04-26T13:15:23Z</time>
      </trkpt>
      <trkpt lat="43.47065" lon="5.32571">
        <ele>199</ele>
        <time>2022-04-26T13:15:44Z</time>
      </trkpt>
      <trkpt lat="43.47065" lon="5.32571">
        <ele>199</ele>
        <time>2022-04-26T13:16:04Z</time>
      </trkpt>
      <trkpt lat="43.47062" lon="5.32574">
        <ele>199</ele>
        <time>2022-04-26T13:16:25Z</time>
      </trkpt>
      <trkpt lat="43.47052" lon="5.3259">
        <ele>201</ele>
        <time>2022-04-26T13:16:46Z</time>
      </trkpt>
      <trkpt lat="43.47044" lon="5.32615">
        <ele>198</ele>
        <time>2022-04-26T13:17:06Z</time>
      </trkpt>
      <trkpt lat="43.47028" lon="5.32635">
        <ele>199</ele>
        <time>2022-04-26T13:17:26Z</time>
      </trkpt>
      <trkpt lat="43.4703" lon="5.32656">
        <ele>200</ele>
        <time>2022-04-26T13:17:47Z</time>
      </trkpt>
      <trkpt lat="43.47042" lon="5.32677">
        <ele>200</ele>
        <time>2022-04-26T13:18:08Z</time>
      </trkpt>
      <trkpt lat="43.47053" lon="5.32698">
        <ele>199</ele>
        <time>2022-04-26T13:18:28Z</time>
      </trkpt>
      <trkpt lat="43.47059" lon="5.32719">
        <ele>200</ele>
        <time>2022-04-26T13:18:48Z</time>
      </trkpt>
      <trkpt lat="43.47062" lon="5.32725">
        <ele>200</ele>
        <time>2022-04-26T13:19:09Z</time>
      </trkpt>
      <trkpt lat="43.47071" lon="5.32746">
        <ele>197</ele>
        <time>2022-04-26T13:19:30Z</time>
      </trkpt>
      <trkpt lat="43.47072" lon="5.32748">
        <ele>197</ele>
        <time>2022-04-26T13:19:50Z</time>
      </trkpt>
      <trkpt lat="43.47071" lon="5.32747">
        <ele>198</ele>
        <time>2022-04-26T13:20:11Z</time>
      </trkpt>
      <trkpt lat="43.47079" lon="5.32759">
        <ele>199</ele>
        <time>2022-04-26T13:20:32Z</time>
      </trkpt>
      <trkpt lat="43.4709" lon="5.32782">
        <ele>200</ele>
        <time>2022-04-26T13:20:52Z</time>
      </trkpt>
      <trkpt lat="43.471" lon="5.328">
        <ele>200</ele>
        <time>2022-04-26T13:21:13Z</time>
      </trkpt>
      <trkpt lat="43.47104" lon="5.32798">
        <ele>201</ele>
        <time>2022-04-26T13:21:33Z</time>
      </trkpt>
      <trkpt lat="43.47113" lon="5.32782">
        <ele>201</ele>
        <time>2022-04-26T13:21:54Z</time>
      </trkpt>
      <trkpt lat="43.47126" lon="5.3279">
        <ele>201</ele>
        <time>2022-04-26T13:22:14Z</time>
      </trkpt>
      <trkpt lat="43.47128" lon="5.32807">
        <ele>198</ele>
        <time>2022-04-26T13:22:35Z</time>
      </trkpt>
      <trkpt lat="43.47127" lon="5.32815">
        <ele>197</ele>
        <time>2022-04-26T13:22:55Z</time>
      </trkpt>
      <trkpt lat="43.47133" lon="5.32833">
        <ele>197</ele>
        <time>2022-04-26T13:23:15Z</time>
      </trkpt>
      <trkpt lat="43.47122" lon="5.32841">
        <ele>197</ele>
        <time>2022-04-26T13:23:36Z</time>
      </trkpt>
      <trkpt lat="43.47119" lon="5.32847">
        <ele>200</ele>
        <time>2022-04-26T13:23:56Z</time>
      </trkpt>
      <trkpt lat="43.47114" lon="5.32852">
        <ele>200</ele>
        <time>2022-04-26T13:24:17Z</time>
      </trkpt>
      <trkpt lat="43.47109" lon="5.32865">
        <ele>203</ele>
        <time>2022-04-26T13:24:37Z</time>
      </trkpt>
      <trkpt lat="43.471" lon="5.32874">
        <ele>206</ele>
        <time>2022-04-26T13:24:58Z</time>
      </trkpt>
      <trkpt lat="43.47092" lon="5.32878">
        <ele>209</ele>
        <time>2022-04-26T13:25:18Z</time>
      </trkpt>
      <trkpt lat="43.47086" lon="5.32876">
        <ele>210</ele>
        <time>2022-04-26T13:25:39Z</time>
      </trkpt>
      <trkpt lat="43.47086" lon="5.32877">
        <ele>210</ele>
        <time>2022-04-26T13:26:00Z</time>
      </trkpt>
      <trkpt lat="43.47093" lon="5.32879">
        <ele>209</ele>
        <time>2022-04-26T13:26:20Z</time>
      </trkpt>
      <trkpt lat="43.47094" lon="5.3288">
        <ele>209</ele>
        <time>2022-04-26T13:26:41Z</time>
      </trkpt>
      <trkpt lat="43.4708" lon="5.32896">
        <ele>209</ele>
        <time>2022-04-26T13:27:02Z</time>
      </trkpt>
      <trkpt lat="43.47062" lon="5.32901">
        <ele>211</ele>
        <time>2022-04-26T13:27:23Z</time>
      </trkpt>
      <trkpt lat="43.47046" lon="5.32902">
        <ele>211</ele>
        <time>2022-04-26T13:27:43Z</time>
      </trkpt>
      <trkpt lat="43.47029" lon="5.32913">
        <ele>212</ele>
        <time>2022-04-26T13:28:03Z</time>
      </trkpt>
      <trkpt lat="43.47016" lon="5.32924">
        <ele>213</ele>
        <time>2022-04-26T13:28:23Z</time>
      </trkpt>
      <trkpt lat="43.47" lon="5.32937">
        <ele>212</ele>
        <time>2022-04-26T13:28:43Z</time>
      </trkpt>
      <trkpt lat="43.46986" lon="5.32938">
        <ele>212</ele>
        <time>2022-04-26T13:29:04Z</time>
      </trkpt>
      <trkpt lat="43.46983" lon="5.32946">
        <ele>211</ele>
        <time>2022-04-26T13:29:24Z</time>
      </trkpt>
      <trkpt lat="43.46984" lon="5.32955">
        <ele>212</ele>
        <time>2022-04-26T13:29:45Z</time>
      </trkpt>
      <trkpt lat="43.46985" lon="5.32958">
        <ele>211</ele>
        <time>2022-04-26T13:30:05Z</time>
      </trkpt>
      <trkpt lat="43.46979" lon="5.32967">
        <ele>209</ele>
        <time>2022-04-26T13:30:26Z</time>
      </trkpt>
      <trkpt lat="43.46969" lon="5.32971">
        <ele>211</ele>
        <time>2022-04-26T13:30:46Z</time>
      </trkpt>
      <trkpt lat="43.46956" lon="5.32982">
        <ele>211</ele>
        <time>2022-04-26T13:31:07Z</time>
      </trkpt>
      <trkpt lat="43.46945" lon="5.32983">
        <ele>210</ele>
        <time>2022-04-26T13:31:27Z</time>
      </trkpt>
      <trkpt lat="43.46931" lon="5.32992">
        <ele>210</ele>
        <time>2022-04-26T13:31:47Z</time>
      </trkpt>
      <trkpt lat="43.46915" lon="5.32994">
        <ele>210</ele>
        <time>2022-04-26T13:32:08Z</time>
      </trkpt>
      <trkpt lat="43.469" lon="5.33002">
        <ele>211</ele>
        <time>2022-04-26T13:32:28Z</time>
      </trkpt>
      <trkpt lat="43.46885" lon="5.33013">
        <ele>211</ele>
        <time>2022-04-26T13:32:49Z</time>
      </trkpt>
      <trkpt lat="43.46871" lon="5.33015">
        <ele>213</ele>
        <time>2022-04-26T13:33:09Z</time>
      </trkpt>
      <trkpt lat="43.46854" lon="5.33021">
        <ele>213</ele>
        <time>2022-04-26T13:33:30Z</time>
      </trkpt>
      <trkpt lat="43.46845" lon="5.33035">
        <ele>213</ele>
        <time>2022-04-26T13:33:51Z</time>
      </trkpt>
      <trkpt lat="43.46829" lon="5.33045">
        <ele>214</ele>
        <time>2022-04-26T13:34:12Z</time>
      </trkpt>
      <trkpt lat="43.46812" lon="5.33055">
        <ele>213</ele>
        <time>2022-04-26T13:34:33Z</time>
      </trkpt>
      <trkpt lat="43.46799" lon="5.33065">
        <ele>213</ele>
        <time>2022-04-26T13:34:53Z</time>
      </trkpt>
      <trkpt lat="43.46784" lon="5.33074">
        <ele>213</ele>
        <time>2022-04-26T13:35:14Z</time>
      </trkpt>
      <trkpt lat="43.46776" lon="5.33076">
        <ele>215</ele>
        <time>2022-04-26T13:35:34Z</time>
      </trkpt>
      <trkpt lat="43.46776" lon="5.33077">
        <ele>215</ele>
        <time>2022-04-26T13:35:55Z</time>
      </trkpt>
      <trkpt lat="43.46777" lon="5.33076">
        <ele>214</ele>
        <time>2022-04-26T13:36:15Z</time>
      </trkpt>
      <trkpt lat="43.46777" lon="5.33076">
        <ele>214</ele>
        <time>2022-04-26T13:36:36Z</time>
      </trkpt>
      <trkpt lat="43.46777" lon="5.33076">
        <ele>214</ele>
        <time>2022-04-26T13:36:57Z</time>
      </trkpt>
      <trkpt lat="43.46775" lon="5.33078">
        <ele>214</ele>
        <time>2022-04-26T13:37:17Z</time>
      </trkpt>
      <trkpt lat="43.46761" lon="5.33089">
        <ele>214</ele>
        <time>2022-04-26T13:37:38Z</time>
      </trkpt>
      <trkpt lat="43.46755" lon="5.33097">
        <ele>214</ele>
        <time>2022-04-26T13:37:58Z</time>
      </trkpt>
      <trkpt lat="43.46751" lon="5.33106">
        <ele>215</ele>
        <time>2022-04-26T13:38:18Z</time>
      </trkpt>
      <trkpt lat="43.46741" lon="5.33123">
        <ele>213</ele>
        <time>2022-04-26T13:38:39Z</time>
      </trkpt>
      <trkpt lat="43.46728" lon="5.33137">
        <ele>212</ele>
        <time>2022-04-26T13:38:59Z</time>
      </trkpt>
      <trkpt lat="43.46714" lon="5.33144">
        <ele>212</ele>
        <time>2022-04-26T13:39:19Z</time>
      </trkpt>
      <trkpt lat="43.46701" lon="5.33157">
        <ele>211</ele>
        <time>2022-04-26T13:39:40Z</time>
      </trkpt>
      <trkpt lat="43.46687" lon="5.33166">
        <ele>214</ele>
        <time>2022-04-26T13:40:00Z</time>
      </trkpt>
      <trkpt lat="43.46675" lon="5.33176">
        <ele>214</ele>
        <time>2022-04-26T13:40:21Z</time>
      </trkpt>
      <trkpt lat="43.46662" lon="5.3319">
        <ele>213</ele>
        <time>2022-04-26T13:40:41Z</time>
      </trkpt>
      <trkpt lat="43.4665" lon="5.33206">
        <ele>216</ele>
        <time>2022-04-26T13:41:02Z</time>
      </trkpt>
      <trkpt lat="43.46642" lon="5.33219">
        <ele>216</ele>
        <time>2022-04-26T13:41:22Z</time>
      </trkpt>
      <trkpt lat="43.46629" lon="5.33225">
        <ele>216</ele>
        <time>2022-04-26T13:41:43Z</time>
      </trkpt>
      <trkpt lat="43.46618" lon="5.33223">
        <ele>215</ele>
        <time>2022-04-26T13:42:03Z</time>
      </trkpt>
      <trkpt lat="43.46602" lon="5.33227">
        <ele>213</ele>
        <time>2022-04-26T13:42:24Z</time>
      </trkpt>
      <trkpt lat="43.46594" lon="5.33245">
        <ele>213</ele>
        <time>2022-04-26T13:42:45Z</time>
      </trkpt>
      <trkpt lat="43.46589" lon="5.33255">
        <ele>212</ele>
        <time>2022-04-26T13:43:05Z</time>
      </trkpt>
      <trkpt lat="43.46581" lon="5.33264">
        <ele>213</ele>
        <time>2022-04-26T13:43:26Z</time>
      </trkpt>
      <trkpt lat="43.46569" lon="5.33257">
        <ele>211</ele>
        <time>2022-04-26T13:43:47Z</time>
      </trkpt>
      <trkpt lat="43.46555" lon="5.33249">
        <ele>212</ele>
        <time>2022-04-26T13:44:07Z</time>
      </trkpt>
      <trkpt lat="43.46543" lon="5.33242">
        <ele>212</ele>
        <time>2022-04-26T13:44:28Z</time>
      </trkpt>
      <trkpt lat="43.4654" lon="5.33239">
        <ele>212</ele>
        <time>2022-04-26T13:44:48Z</time>
      </trkpt>
      <trkpt lat="43.4654" lon="5.33239">
        <ele>212</ele>
        <time>2022-04-26T13:45:09Z</time>
      </trkpt>
      <trkpt lat="43.4654" lon="5.33239">
        <ele>212</ele>
        <time>2022-04-26T13:45:29Z</time>
      </trkpt>
      <trkpt lat="43.46534" lon="5.33243">
        <ele>212</ele>
        <time>2022-04-26T13:45:50Z</time>
      </trkpt>
      <trkpt lat="43.46522" lon="5.33251">
        <ele>211</ele>
        <time>2022-04-26T13:46:10Z</time>
      </trkpt>
      <trkpt lat="43.46513" lon="5.33262">
        <ele>210</ele>
        <time>2022-04-26T13:46:30Z</time>
      </trkpt>
      <trkpt lat="43.4651" lon="5.33283">
        <ele>209</ele>
        <time>2022-04-26T13:46:51Z</time>
      </trkpt>
      <trkpt lat="43.46496" lon="5.33298">
        <ele>207</ele>
        <time>2022-04-26T13:47:11Z</time>
      </trkpt>
      <trkpt lat="43.46481" lon="5.33291">
        <ele>208</ele>
        <time>2022-04-26T13:47:32Z</time>
      </trkpt>
      <trkpt lat="43.46467" lon="5.3329">
        <ele>209</ele>
        <time>2022-04-26T13:47:53Z</time>
      </trkpt>
      <trkpt lat="43.4646" lon="5.33289">
        <ele>212</ele>
        <time>2022-04-26T13:48:13Z</time>
      </trkpt>
      <trkpt lat="43.46445" lon="5.33294">
        <ele>209</ele>
        <time>2022-04-26T13:48:34Z</time>
      </trkpt>
      <trkpt lat="43.46428" lon="5.33292">
        <ele>209</ele>
        <time>2022-04-26T13:48:54Z</time>
      </trkpt>
      <trkpt lat="43.46417" lon="5.33298">
        <ele>209</ele>
        <time>2022-04-26T13:49:15Z</time>
      </trkpt>
      <trkpt lat="43.46412" lon="5.33308">
        <ele>210</ele>
        <time>2022-04-26T13:49:36Z</time>
      </trkpt>
      <trkpt lat="43.46406" lon="5.33317">
        <ele>213</ele>
        <time>2022-04-26T13:49:56Z</time>
      </trkpt>
      <trkpt lat="43.46397" lon="5.3333">
        <ele>211</ele>
        <time>2022-04-26T13:50:17Z</time>
      </trkpt>
      <trkpt lat="43.46387" lon="5.33343">
        <ele>211</ele>
        <time>2022-04-26T13:50:38Z</time>
      </trkpt>
      <trkpt lat="43.46373" lon="5.33354">
        <ele>212</ele>
        <time>2022-04-26T13:50:58Z</time>
      </trkpt>
      <trkpt lat="43.46361" lon="5.33367">
        <ele>212</ele>
        <time>2022-04-26T13:51:19Z</time>
      </trkpt>
      <trkpt lat="43.46353" lon="5.33387">
        <ele>210</ele>
        <time>2022-04-26T13:51:40Z</time>
      </trkpt>
      <trkpt lat="43.46346" lon="5.33401">
        <ele>210</ele>
        <time>2022-04-26T13:52:00Z</time>
      </trkpt>
      <trkpt lat="43.4634" lon="5.33421">
        <ele>208</ele>
        <time>2022-04-26T13:52:20Z</time>
      </trkpt>
      <trkpt lat="43.46335" lon="5.33429">
        <ele>207</ele>
        <time>2022-04-26T13:52:41Z</time>
      </trkpt>
      <trkpt lat="43.46334" lon="5.33432">
        <ele>207</ele>
        <time>2022-04-26T13:53:01Z</time>
      </trkpt>
      <trkpt lat="43.46326" lon="5.33439">
        <ele>206</ele>
        <time>2022-04-26T13:53:21Z</time>
      </trkpt>
      <trkpt lat="43.46323" lon="5.33446">
        <ele>205</ele>
        <time>2022-04-26T13:53:41Z</time>
      </trkpt>
      <trkpt lat="43.46314" lon="5.3346">
        <ele>205</ele>
        <time>2022-04-26T13:54:02Z</time>
      </trkpt>
      <trkpt lat="43.463" lon="5.33472">
        <ele>206</ele>
        <time>2022-04-26T13:54:23Z</time>
      </trkpt>
      <trkpt lat="43.46288" lon="5.33481">
        <ele>207</ele>
        <time>2022-04-26T13:54:43Z</time>
      </trkpt>
      <trkpt lat="43.46283" lon="5.33497">
        <ele>204</ele>
        <time>2022-04-26T13:55:04Z</time>
      </trkpt>
      <trkpt lat="43.46288" lon="5.33515">
        <ele>201</ele>
        <time>2022-04-26T13:55:25Z</time>
      </trkpt>
      <trkpt lat="43.46293" lon="5.33532">
        <ele>200</ele>
        <time>2022-04-26T13:55:45Z</time>
      </trkpt>
      <trkpt lat="43.46293" lon="5.3355">
        <ele>202</ele>
        <time>2022-04-26T13:56:05Z</time>
      </trkpt>
    </trkseg>
  </trk>
</gpx>